Time;durP1;ratioP1;P1;durP2;ratioP2;P2;SDS_P1;SDS_P2;PMS_P1;PMS_P2;Temp;Humidity;BMP_temperature;BMP_pressure;BME280_temperature;BME280_humidity;BME280_pressure;Samples;Min_cycle;Max_cycle;Signal;HPM_P1;HPM_P2
2023/06/15 00:02:17;;;;;;;2.78;2.53;;;18.00;91.00;;;;;;5093574;28;20506;-48
2023/06/15 00:04:43;;;;;;;2.70;2.50;;;18.00;91.00;;;;;;5093363;28;20028;-48
2023/06/15 00:07:08;;;;;;;4.38;2.85;;;18.00;91.10;;;;;;5093476;28;20373;-52
2023/06/15 00:09:34;;;;;;;7.15;2.45;;;18.00;91.30;;;;;;5093220;28;20069;-48
2023/06/15 00:12:00;;;;;;;6.53;2.72;;;17.90;91.40;;;;;;5092838;28;20099;-47
2023/06/15 00:14:25;;;;;;;3.85;2.30;;;17.90;91.60;;;;;;5093002;28;20047;-50
2023/06/15 00:16:52;;;;;;;2.88;2.35;;;17.90;91.70;;;;;;5092256;28;20028;-49
2023/06/15 00:19:21;;;;;;;4.97;2.70;;;17.80;91.90;;;;;;5093109;28;20438;-48
2023/06/15 00:21:48;;;;;;;4.03;2.35;;;17.80;92.00;;;;;;5074420;28;20028;-48
2023/06/15 00:24:14;;;;;;;2.45;2.35;;;17.80;92.10;;;;;;5092786;28;20015;-51
2023/06/15 00:26:40;;;;;;;2.90;2.63;;;17.70;92.20;;;;;;5092945;28;20103;-50
2023/06/15 00:29:05;;;;;;;2.75;2.55;;;17.70;92.30;;;;;;5092960;28;20208;-49
2023/06/15 00:31:33;;;;;;;6.15;2.63;;;17.70;92.40;;;;;;5093326;28;20044;-48
2023/06/15 00:33:59;;;;;;;2.72;2.55;;;17.70;92.50;;;;;;5092006;28;20026;-48
2023/06/15 00:36:24;;;;;;;2.75;2.55;;;17.70;92.70;;;;;;5091793;28;20099;-48
2023/06/15 00:38:50;;;;;;;2.22;2.13;;;17.50;92.80;;;;;;5092608;28;20438;-48
2023/06/15 00:41:15;;;;;;;5.78;2.58;;;17.60;92.90;;;;;;5092856;28;20090;-50
2023/06/15 00:43:41;;;;;;;5.80;2.67;;;17.60;93.00;;;;;;5092401;28;20024;-48
2023/06/15 00:46:07;;;;;;;5.70;2.83;;;17.60;93.10;;;;;;5092540;28;20538;-51
2023/06/15 00:48:33;;;;;;;3.83;2.40;;;17.60;93.20;;;;;;5092790;28;20032;-48
2023/06/15 00:50:59;;;;;;;4.50;2.95;;;17.50;93.40;;;;;;5092579;28;20036;-48
2023/06/15 00:53:25;;;;;;;2.97;2.60;;;17.50;93.50;;;;;;5091875;28;20107;-50
2023/06/15 00:55:51;;;;;;;4.97;2.58;;;17.50;93.60;;;;;;5092006;28;20060;-50
2023/06/15 00:58:18;;;;;;;3.95;2.72;;;17.50;93.80;;;;;;5074353;28;20568;-48
2023/06/15 01:00:48;;;;;;;5.90;2.97;;;17.40;93.90;;;;;;5092280;28;20400;-48
2023/06/15 01:03:15;;;;;;;4.57;2.83;;;17.50;94.00;;;;;;5091645;28;20031;-48
2023/06/15 01:05:44;;;;;;;2.58;2.38;;;17.40;94.10;;;;;;5091779;28;20024;-52
2023/06/15 01:08:11;;;;;;;5.43;2.70;;;17.40;94.10;;;;;;5092664;28;20468;-50
2023/06/15 01:10:37;;;;;;;4.80;3.05;;;17.30;94.30;;;;;;5092434;28;20032;-49
2023/06/15 01:13:05;;;;;;;5.57;2.63;;;17.30;94.50;;;;;;5091765;28;20023;-49
2023/06/15 01:15:31;;;;;;;3.40;2.53;;;17.10;94.70;;;;;;5090766;28;20028;-46
2023/06/15 01:18:02;;;;;;;2.67;2.47;;;17.10;95.00;;;;;;5092061;28;20020;-52
2023/06/15 01:20:43;;;;;;;3.38;3.08;;;17.00;95.00;;;;;;5092117;28;20027;-49
2023/06/15 01:23:21;;;;;;;2.65;2.50;;;17.00;95.30;;;;;;5091717;28;20106;-50
2023/06/15 01:25:49;;;;;;;2.88;2.65;;;16.90;95.40;;;;;;5091714;28;20031;-50
2023/06/15 01:28:20;;;;;;;5.00;3.38;;;16.90;95.60;;;;;;5092269;28;20454;-50
2023/06/15 01:30:48;;;;;;;5.70;2.78;;;16.90;95.60;;;;;;5073798;28;20028;-48
2023/06/15 01:33:15;;;;;;;4.25;3.08;;;16.80;96.10;;;;;;5091434;28;20017;-48
2023/06/15 01:35:41;;;;;;;2.60;2.30;;;16.80;95.80;;;;;;5091372;28;20016;-48
2023/06/15 01:38:07;;;;;;;2.40;2.30;;;16.80;95.90;;;;;;5092264;28;20039;-49
2023/06/15 01:40:36;;;;;;;5.65;2.53;;;16.80;95.90;;;;;;5091983;28;20032;-48
2023/06/15 01:43:04;;;;;;;3.53;2.85;;;16.80;96.20;;;;;;5073178;28;20051;-48
2023/06/15 01:45:30;;;;;;;2.80;2.60;;;16.70;96.30;;;;;;5091108;28;20388;-53
2023/06/15 01:47:56;;;;;;;3.25;2.70;;;16.70;96.40;;;;;;5075813;28;20078;-54
2023/06/15 01:50:24;;;;;;;3.38;3.05;;;16.70;96.50;;;;;;5095693;28;20032;-50
2023/06/15 01:52:49;;;;;;;5.35;3.17;;;16.70;96.50;;;;;;5077310;28;20036;-49
2023/06/15 01:55:15;;;;;;;3.17;2.83;;;16.70;96.60;;;;;;5095453;28;20067;-54
2023/06/15 01:57:41;;;;;;;2.80;2.60;;;16.70;96.70;;;;;;5095780;28;20044;-52
2023/06/15 02:00:10;;;;;;;5.97;3.08;;;16.70;96.60;;;;;;5095668;28;20268;-52
2023/06/15 02:02:36;;;;;;;5.15;2.88;;;16.70;96.80;;;;;;5095199;28;20437;-50
2023/06/15 02:05:03;;;;;;;3.30;3.00;;;16.60;96.90;;;;;;5095577;28;20024;-51
2023/06/15 02:07:29;;;;;;;3.70;2.67;;;16.60;97.10;;;;;;5095594;28;20066;-53
2023/06/15 02:09:55;;;;;;;3.30;2.72;;;16.50;97.30;;;;;;5095468;28;20059;-52
2023/06/15 02:12:20;;;;;;;4.32;2.75;;;16.40;97.60;;;;;;5094962;28;20364;-48
2023/06/15 02:14:49;;;;;;;3.00;2.78;;;16.40;97.70;;;;;;5094912;28;20021;-46
2023/06/15 02:17:18;;;;;;;4.30;2.90;;;16.50;97.60;;;;;;5076196;28;20024;-49
2023/06/15 02:19:45;;;;;;;3.80;2.85;;;16.60;97.60;;;;;;5095664;28;20077;-50
2023/06/15 02:22:10;;;;;;;3.33;3.00;;;16.60;97.70;;;;;;5076477;28;20024;-52
2023/06/15 02:24:36;;;;;;;3.63;2.80;;;16.60;97.60;;;;;;5094843;28;20035;-53
2023/06/15 02:27:01;;;;;;;9.43;3.33;;;16.60;97.60;;;;;;5095221;28;20032;-55
2023/06/15 02:29:27;;;;;;;4.85;3.00;;;16.60;97.80;;;;;;5076823;28;20396;-50
2023/06/15 02:31:52;;;;;;;3.88;2.55;;;16.50;97.90;;;;;;5094558;28;20032;-46
2023/06/15 02:34:18;;;;;;;7.78;3.00;;;16.50;98.10;;;;;;5094908;28;20082;-50
2023/06/15 02:36:43;;;;;;;3.20;2.53;;;16.40;98.30;;;;;;5076785;28;20028;-51
2023/06/15 02:39:10;;;;;;;3.05;2.85;;;16.40;98.40;;;;;;5094995;28;20032;-48
2023/06/15 02:41:36;;;;;;;3.67;2.85;;;16.30;98.60;;;;;;5094838;28;20395;-49
2023/06/15 02:44:02;;;;;;;3.78;3.00;;;16.30;98.80;;;;;;5094020;28;20036;-52
2023/06/15 02:46:27;;;;;;;3.70;2.70;;;16.10;99.10;;;;;;5094887;28;20027;-51
2023/06/15 02:48:53;;;;;;;3.67;3.05;;;16.10;99.30;;;;;;5094757;28;20055;-52
2023/06/15 02:51:19;;;;;;;6.00;2.72;;;16.10;99.60;;;;;;5094883;28;20046;-51
2023/06/15 02:53:46;;;;;;;4.45;2.83;;;16.10;99.50;;;;;;5093919;28;20122;-51
2023/06/15 02:56:18;;;;;;;2.90;2.70;;;16.10;99.70;;;;;;5095378;28;20066;-50
2023/06/15 02:58:53;;;;;;;3.40;3.10;;;16.10;99.70;;;;;;5093771;28;20403;-52
2023/06/15 03:01:23;;;;;;;8.75;2.97;;;16.20;99.70;;;;;;5094816;28;20028;-50
2023/06/15 03:03:49;;;;;;;3.15;2.83;;;16.20;99.90;;;;;;5094017;28;20016;-49
2023/06/15 03:06:15;;;;;;;3.25;2.97;;;16.30;99.70;;;;;;5094514;28;20490;-55
2023/06/15 03:08:42;;;;;;;3.60;3.30;;;16.30;99.50;;;;;;5094610;28;20094;-51
2023/06/15 03:11:08;;;;;;;3.45;2.85;;;16.30;99.60;;;;;;5094899;28;20020;-50
2023/06/15 03:13:33;;;;;;;3.03;2.72;;;16.30;99.70;;;;;;5075847;28;20472;-52
2023/06/15 03:16:00;;;;;;;5.65;2.75;;;16.20;99.80;;;;;;5074827;28;20028;-50
2023/06/15 03:18:27;;;;;;;3.38;3.17;;;16.20;99.90;;;;;;5094858;28;20066;-51
2023/06/15 03:20:52;;;;;;;3.40;3.10;;;16.10;99.90;;;;;;5094308;28;20082;-51
2023/06/15 03:23:21;;;;;;;3.33;3.03;;;16.20;99.90;;;;;;5094034;28;20032;-51
2023/06/15 03:25:47;;;;;;;3.20;2.90;;;16.20;99.90;;;;;;5093646;28;20020;-52
2023/06/15 03:28:12;;;;;;;3.38;3.08;;;16.20;99.90;;;;;;5094257;28;20099;-54
2023/06/15 03:30:40;;;;;;;3.30;3.10;;;16.10;99.90;;;;;;5093967;28;20031;-54
2023/06/15 03:33:09;;;;;;;3.80;2.90;;;16.10;99.90;;;;;;5093754;28;20391;-52
2023/06/15 03:35:35;;;;;;;4.20;3.25;;;16.10;99.90;;;;;;5075384;28;20506;-49
2023/06/15 03:38:00;;;;;;;5.03;3.50;;;16.10;99.90;;;;;;5093735;28;20032;-52
2023/06/15 03:40:26;;;;;;;9.13;3.53;;;16.10;99.90;;;;;;5093981;28;20475;-49
2023/06/15 03:42:51;;;;;;;6.63;3.03;;;16.10;99.90;;;;;;5093412;28;20028;-50
2023/06/15 03:45:18;;;;;;;5.40;3.30;;;16.00;99.90;;;;;;5093584;28;20028;-51
2023/06/15 03:47:46;;;;;;;4.22;3.25;;;16.00;99.90;;;;;;5093936;28;20085;-53
2023/06/15 03:50:12;;;;;;;3.95;3.28;;;16.00;99.90;;;;;;5075787;28;20107;-51
2023/06/15 03:52:37;;;;;;;3.25;2.95;;;16.10;99.90;;;;;;5093188;28;20532;-52
2023/06/15 03:55:03;;;;;;;3.30;2.72;;;16.00;99.90;;;;;;5093586;28;20031;-50
2023/06/15 03:57:29;;;;;;;3.35;3.08;;;16.00;99.90;;;;;;5093752;28;20023;-51
2023/06/15 03:59:55;;;;;;;3.83;3.45;;;16.00;99.90;;;;;;5093869;28;20054;-50
2023/06/15 04:02:20;;;;;;;9.60;3.78;;;16.10;99.90;;;;;;5093268;28;20098;-51
2023/06/15 04:04:46;;;;;;;4.70;3.00;;;16.10;99.90;;;;;;5093329;28;20024;-50
2023/06/15 04:07:11;;;;;;;6.80;3.60;;;16.10;99.90;;;;;;5093497;28;20506;-52
2023/06/15 04:09:37;;;;;;;5.60;3.20;;;16.10;99.90;;;;;;5093186;28;20028;-49
2023/06/15 04:12:03;;;;;;;3.47;3.17;;;16.20;99.90;;;;;;5074725;28;20164;-49
2023/06/15 04:14:28;;;;;;;5.63;3.42;;;16.10;99.90;;;;;;5093343;28;20022;-48
2023/06/15 04:16:54;;;;;;;3.63;3.28;;;16.10;99.90;;;;;;5092395;28;20111;-51
2023/06/15 04:19:22;;;;;;;8.82;3.30;;;16.20;99.90;;;;;;5075034;28;20039;-51
2023/06/15 04:21:48;;;;;;;5.28;3.40;;;16.30;99.90;;;;;;5074203;28;20032;-52
2023/06/15 04:24:14;;;;;;;6.88;4.00;;;16.30;99.90;;;;;;5092754;28;20205;-49
2023/06/15 04:26:41;;;;;;;3.63;3.22;;;16.40;99.90;;;;;;5093100;28;20024;-55
2023/06/15 04:29:07;;;;;;;3.22;2.92;;;16.40;99.90;;;;;;5093110;28;20031;-54
2023/06/15 04:31:33;;;;;;;7.65;3.35;;;16.50;99.90;;;;;;5093313;28;20024;-53
2023/06/15 04:34:00;;;;;;;5.53;3.83;;;16.60;99.90;;;;;;5092472;28;20031;-54
2023/06/15 04:36:27;;;;;;;4.15;3.35;;;16.70;99.90;;;;;;5093292;28;20028;-51
2023/06/15 04:38:53;;;;;;;4.78;3.45;;;16.70;99.90;;;;;;5092674;28;20020;-52
2023/06/15 04:41:22;;;;;;;3.85;3.25;;;16.80;99.90;;;;;;5092639;28;20025;-50
2023/06/15 04:43:48;;;;;;;5.60;3.38;;;16.90;99.90;;;;;;5091689;28;20019;-50
2023/06/15 04:46:17;;;;;;;4.20;2.92;;;17.10;99.90;;;;;;5092272;28;20395;-52
2023/06/15 04:48:44;;;;;;;4.65;3.45;;;17.40;99.90;;;;;;5092333;28;20278;-50
2023/06/15 04:51:10;;;;;;;5.38;2.80;;;17.50;99.90;;;;;;5092424;28;20021;-50
2023/06/15 04:53:36;;;;;;;3.30;3.00;;;17.80;99.30;;;;;;5091650;28;20030;-49
2023/06/15 04:56:01;;;;;;;3.88;3.28;;;18.20;98.60;;;;;;5092558;28;20120;-55
2023/06/15 04:58:27;;;;;;;3.33;3.03;;;18.90;97.40;;;;;;5092177;28;20016;-50
2023/06/15 05:00:52;;;;;;;5.13;2.65;;;19.60;95.80;;;;;;5091758;28;20039;-50
2023/06/15 05:03:18;;;;;;;5.85;4.40;;;20.30;94.70;;;;;;5092243;28;20040;-49
2023/06/15 05:05:44;;;;;;;4.55;2.50;;;20.90;93.20;;;;;;5092224;28;20020;-52
2023/06/15 05:08:11;;;;;;;5.10;3.13;;;21.40;92.50;;;;;;5092581;28;20498;-51
2023/06/15 05:10:37;;;;;;;5.30;2.92;;;21.70;91.40;;;;;;5092673;28;20036;-51
2023/06/15 05:13:03;;;;;;;4.55;2.72;;;22.00;90.80;;;;;;5092080;28;20450;-50
2023/06/15 05:15:29;;;;;;;4.10;3.13;;;22.50;90.10;;;;;;5091320;28;20020;-52
2023/06/15 05:17:54;;;;;;;3.05;2.60;;;22.90;88.60;;;;;;5092523;28;20062;-49
2023/06/15 05:20:20;;;;;;;3.38;2.92;;;23.50;87.10;;;;;;5092716;28;20107;-52
2023/06/15 05:22:45;;;;;;;7.30;2.67;;;23.80;85.60;;;;;;5092408;28;20044;-48
2023/06/15 05:25:11;;;;;;;5.95;3.35;;;23.80;84.60;;;;;;5092298;28;20028;-51
2023/06/15 05:27:37;;;;;;;5.45;2.70;;;23.60;85.10;;;;;;5092150;28;20036;-50
2023/06/15 05:30:07;;;;;;;3.90;2.65;;;23.60;85.60;;;;;;5091805;28;20031;-49
2023/06/15 05:32:37;;;;;;;3.40;2.75;;;23.50;85.00;;;;;;5091420;28;20510;-50
2023/06/15 05:35:04;;;;;;;4.90;2.63;;;23.60;84.90;;;;;;5091417;28;20502;-53
2023/06/15 05:37:30;;;;;;;2.60;2.42;;;23.70;84.20;;;;;;5092172;28;20020;-50
2023/06/15 05:39:55;;;;;;;4.00;3.03;;;23.50;84.30;;;;;;5073521;28;20114;-51
2023/06/15 05:42:21;;;;;;;3.05;2.75;;;23.50;84.80;;;;;;5091162;28;20031;-55
2023/06/15 05:44:46;;;;;;;7.60;2.50;;;23.40;84.70;;;;;;5091381;28;20040;-48
2023/06/15 05:47:12;;;;;;;4.93;2.60;;;23.50;85.00;;;;;;5091559;28;20024;-51
2023/06/15 05:49:37;;;;;;;4.35;2.70;;;24.00;83.60;;;;;;5091396;28;20065;-50
2023/06/15 05:52:03;;;;;;;3.50;2.40;;;24.30;82.40;;;;;;5091121;28;20020;-50
2023/06/15 05:54:28;;;;;;;4.00;2.85;;;24.40;82.30;;;;;;5091046;28;20521;-51
2023/06/15 05:56:54;;;;;;;3.50;2.85;;;24.60;81.30;;;;;;5092268;28;20021;-52
2023/06/15 05:59:19;;;;;;;2.67;2.38;;;24.60;81.00;;;;;;5095472;28;20027;-50
2023/06/15 06:01:45;;;;;;;4.85;2.53;;;24.40;81.50;;;;;;5095025;28;20024;-48
2023/06/15 06:04:10;;;;;;;3.47;2.67;;;24.30;81.10;;;;;;5094261;28;20476;-49
2023/06/15 06:06:36;;;;;;;5.25;2.50;;;24.30;81.40;;;;;;5077451;28;20514;-49
2023/06/15 06:09:01;;;;;;;2.67;2.40;;;24.20;82.00;;;;;;5094253;28;20040;-50
2023/06/15 06:11:27;;;;;;;3.53;2.90;;;24.50;81.40;;;;;;5093221;28;20086;-52
2023/06/15 06:13:53;;;;;;;3.88;2.20;;;24.90;81.00;;;;;;5092210;28;20434;-49
2023/06/15 06:16:18;;;;;;;3.55;2.10;;;24.90;80.00;;;;;;5091368;28;20051;-51
2023/06/15 06:18:44;;;;;;;9.63;2.42;;;25.10;79.90;;;;;;5091734;28;20024;-50
2023/06/15 06:21:10;;;;;;;9.27;2.72;;;25.10;80.00;;;;;;5091293;28;20062;-47
2023/06/15 06:23:36;;;;;;;3.67;2.58;;;25.50;79.70;;;;;;5090874;28;20085;-50
2023/06/15 06:26:02;;;;;;;3.92;2.42;;;25.90;77.90;;;;;;5092452;28;20111;-54
2023/06/15 06:28:28;;;;;;;4.03;2.38;;;26.20;77.00;;;;;;5075189;28;20043;-50
2023/06/15 06:30:54;;;;;;;3.97;2.40;;;26.30;76.30;;;;;;5092240;28;20024;-48
2023/06/15 06:33:19;;;;;;;2.92;2.72;;;26.00;76.80;;;;;;5091901;28;20024;-49
2023/06/15 06:35:45;;;;;;;4.00;2.15;;;26.20;76.20;;;;;;5095033;28;20035;-51
2023/06/15 06:38:11;;;;;;;7.65;2.65;;;26.00;76.60;;;;;;5095845;28;20475;-51
2023/06/15 06:40:37;;;;;;;4.20;2.42;;;26.10;76.80;;;;;;5077991;28;20084;-48
2023/06/15 06:43:03;;;;;;;2.75;2.42;;;26.70;76.70;;;;;;5095725;28;20036;-50
2023/06/15 06:45:28;;;;;;;4.65;2.10;;;27.70;73.80;;;;;;5094471;28;20028;-51
2023/06/15 06:47:54;;;;;;;5.82;2.55;;;27.50;73.60;;;;;;5095513;28;20024;-52
2023/06/15 06:50:19;;;;;;;3.15;2.22;;;27.50;74.40;;;;;;5095661;28;20032;-48
2023/06/15 06:52:45;;;;;;;3.58;2.70;;;27.00;73.70;;;;;;5095347;28;20460;-49
2023/06/15 06:55:10;;;;;;;4.25;2.33;;;27.20;73.50;;;;;;5096124;28;20020;-50
2023/06/15 06:57:36;;;;;;;5.10;2.70;;;27.10;74.20;;;;;;5095563;28;20020;-50
2023/06/15 07:00:03;;;;;;;3.13;2.42;;;27.10;73.60;;;;;;5095278;28;20031;-49
2023/06/15 07:02:28;;;;;;;3.80;2.78;;;27.60;73.50;;;;;;5094702;28;20533;-49
2023/06/15 07:04:54;;;;;;;5.65;2.58;;;27.80;72.10;;;;;;5095080;28;20024;-51
2023/06/15 07:07:19;;;;;;;2.75;2.47;;;27.50;71.20;;;;;;5095210;28;20036;-48
2023/06/15 07:09:45;;;;;;;2.70;2.50;;;27.80;72.70;;;;;;5095477;28;20050;-50
2023/06/15 07:12:11;;;;;;;7.95;2.70;;;27.90;71.70;;;;;;5094408;28;20024;-49
2023/06/15 07:14:36;;;;;;;2.95;1.75;;;27.80;71.40;;;;;;5094983;28;20034;-51
2023/06/15 07:17:02;;;;;;;5.60;2.65;;;28.10;71.40;;;;;;5094873;28;20024;-50
2023/06/15 07:19:28;;;;;;;3.92;2.70;;;28.00;71.10;;;;;;5095871;28;20034;-49
2023/06/15 07:21:53;;;;;;;2.92;2.25;;;27.40;71.10;;;;;;5094150;28;20032;-49
2023/06/15 07:24:19;;;;;;;6.60;2.80;;;27.60;71.60;;;;;;5094742;28;20044;-55
2023/06/15 07:26:44;;;;;;;2.92;2.47;;;27.60;71.90;;;;;;5094958;28;20063;-50
2023/06/15 07:29:10;;;;;;;2.22;2.13;;;27.80;71.60;;;;;;5094973;28;20055;-51
2023/06/15 07:31:35;;;;;;;4.03;2.30;;;27.30;71.60;;;;;;5094578;28;20080;-50
2023/06/15 07:34:02;;;;;;;3.08;2.47;;;27.60;72.30;;;;;;5093988;28;20066;-52
2023/06/15 07:36:28;;;;;;;6.45;2.35;;;27.70;71.40;;;;;;5094684;28;20021;-49
2023/06/15 07:38:54;;;;;;;5.20;2.15;;;28.00;70.80;;;;;;5094660;28;20025;-52
2023/06/15 07:41:19;;;;;;;2.45;2.25;;;27.90;71.60;;;;;;5094206;28;20026;-49
2023/06/15 07:43:45;;;;;;;2.95;2.08;;;28.10;70.60;;;;;;5093756;28;20226;-49
2023/06/15 07:46:10;;;;;;;3.63;2.35;;;28.40;70.80;;;;;;5093723;28;20086;-52
2023/06/15 07:48:36;;;;;;;2.40;2.20;;;29.00;70.10;;;;;;5076499;28;20459;-52
2023/06/15 07:51:01;;;;;;;5.78;2.50;;;29.20;69.10;;;;;;5094428;28;20034;-50
2023/06/15 07:53:27;;;;;;;2.42;2.22;;;29.40;68.20;;;;;;5093432;28;20020;-51
2023/06/15 07:55:52;;;;;;;2.53;2.30;;;29.30;67.90;;;;;;5093508;28;20042;-50
2023/06/15 07:58:18;;;;;;;3.13;2.40;;;29.40;68.10;;;;;;5093836;28;20024;-52
2023/06/15 08:00:43;;;;;;;2.55;2.35;;;29.60;67.70;;;;;;5093823;28;20032;-51
2023/06/15 08:03:09;;;;;;;5.10;2.60;;;30.10;67.00;;;;;;5075478;28;20016;-53
2023/06/15 08:05:34;;;;;;;3.03;2.40;;;30.50;66.30;;;;;;5093334;28;20088;-53
2023/06/15 08:08:00;;;;;;;3.78;2.05;;;30.60;65.70;;;;;;5093948;28;20024;-50
2023/06/15 08:10:25;;;;;;;3.03;2.10;;;30.70;66.40;;;;;;5093956;28;20028;-50
2023/06/15 08:12:51;;;;;;;2.92;2.53;;;30.30;65.70;;;;;;5093144;28;20487;-50
2023/06/15 08:15:16;;;;;;;8.63;2.17;;;29.20;65.90;;;;;;5091893;28;20032;-52
2023/06/15 08:17:42;;;;;;;2.33;2.13;;;28.70;66.40;;;;;;5093355;28;20066;-50
2023/06/15 08:20:09;;;;;;;2.55;2.40;;;28.50;67.00;;;;;;5093308;28;20153;-49
2023/06/15 08:22:35;;;;;;;3.08;2.80;;;27.60;68.70;;;;;;5092547;28;20411;-49
2023/06/15 08:25:00;;;;;;;3.78;2.55;;;27.20;69.60;;;;;;5093054;28;20141;-52
2023/06/15 08:27:26;;;;;;;5.25;2.47;;;26.90;70.70;;;;;;5093159;28;20028;-50
2023/06/15 08:29:52;;;;;;;3.30;3.08;;;26.90;70.30;;;;;;5093209;28;20032;-53
2023/06/15 08:32:17;;;;;;;4.78;2.58;;;26.70;71.00;;;;;;5092951;28;20099;-54
2023/06/15 08:34:44;;;;;;;6.40;2.65;;;26.50;70.40;;;;;;5092783;28;20072;-50
2023/06/15 08:37:11;;;;;;;7.85;3.08;;;26.30;71.20;;;;;;5093126;28;20475;-47
2023/06/15 08:39:37;;;;;;;4.47;2.80;;;26.30;72.10;;;;;;5074582;28;20020;-48
2023/06/15 08:42:03;;;;;;;3.67;2.30;;;26.10;72.10;;;;;;5092801;28;20496;-49
2023/06/15 08:44:33;;;;;;;4.43;2.50;;;26.00;71.60;;;;;;5074090;28;20031;-49
2023/06/15 08:47:01;;;;;;;2.72;2.50;;;26.20;71.20;;;;;;5092472;28;20442;-48
2023/06/15 08:49:30;;;;;;;5.10;2.25;;;26.00;71.00;;;;;;5092562;28;20430;-50
2023/06/15 08:51:58;;;;;;;2.40;2.20;;;26.00;67.50;;;;;;5092001;28;20080;-48
2023/06/15 08:54:27;;;;;;;3.28;2.72;;;25.90;68.60;;;;;;5092056;28;20020;-50
2023/06/15 08:56:56;;;;;;;3.65;2.65;;;25.90;68.20;;;;;;5091396;28;20439;-52
2023/06/15 08:59:22;;;;;;;7.05;3.22;;;25.80;68.90;;;;;;5092606;28;20385;-48
2023/06/15 09:01:48;;;;;;;3.60;3.30;;;26.10;68.00;;;;;;5092242;28;20111;-49
2023/06/15 09:04:15;;;;;;;6.18;3.15;;;26.20;66.20;;;;;;5088356;28;20424;-47
2023/06/15 09:06:41;;;;;;;3.65;2.60;;;26.10;66.20;;;;;;5088954;28;20110;-48
2023/06/15 09:09:09;;;;;;;7.70;2.83;;;26.20;67.60;;;;;;5072059;28;20104;-48
2023/06/15 09:11:39;;;;;;;12.23;2.72;;;26.30;68.00;;;;;;5082947;28;20043;-49
2023/06/15 09:14:09;;;;;;;2.60;2.40;;;26.60;68.10;;;;;;5091556;28;20027;-51
2023/06/15 09:16:35;;;;;;;6.03;2.50;;;26.40;67.90;;;;;;5072292;28;20027;-48
2023/06/15 09:19:00;;;;;;;7.95;2.70;;;26.40;67.40;;;;;;5072061;28;20017;-50
2023/06/15 09:21:28;;;;;;;3.78;2.35;;;26.40;68.40;;;;;;5053877;28;20107;-47
2023/06/15 09:24:03;;;;;;;8.45;2.70;;;26.60;67.50;;;;;;5076000;28;20031;-48
2023/06/15 09:26:29;;;;;;;7.10;2.85;;;27.00;67.80;;;;;;5092018;28;20024;-49
2023/06/15 09:28:56;;;;;;;2.92;2.72;;;26.70;67.30;;;;;;5076443;28;20031;-51
2023/06/15 09:31:32;;;;;;;6.65;2.35;;;26.50;68.10;;;;;;5085686;28;20052;-52
2023/06/15 09:34:04;;;;;;;5.78;2.80;;;;;;;;;;5091085;28;20035;-50
2023/06/15 09:36:48;;;;;;;8.27;2.67;;;;;;;;;;5091721;28;20044;-50
2023/06/15 09:39:15;;;;;;;3.80;2.40;;;26.60;87.20;;;;;;5091928;28;20369;-50
2023/06/15 09:41:58;;;;;;;3.85;2.33;;;26.70;69.30;;;;;;5092093;28;20387;-51
2023/06/15 09:44:25;;;;;;;9.10;2.35;;;26.50;68.80;;;;;;5071397;28;20388;-54
2023/06/15 09:46:52;;;;;;;2.03;1.83;;;26.20;68.30;;;;;;5071725;28;20037;-48
2023/06/15 09:49:23;;;;;;;4.95;2.38;;;26.20;67.20;;;;;;5071638;28;20086;-49
2023/06/15 09:51:52;;;;;;;2.58;2.30;;;26.00;68.60;;;;;;5071032;28;20029;-49
2023/06/15 09:54:20;;;;;;;2.58;2.38;;;25.90;68.90;;;;;;5071558;28;20033;-49
2023/06/15 09:56:49;;;;;;;4.50;2.55;;;26.00;69.20;;;;;;5071732;28;20021;-48
2023/06/15 09:59:14;;;;;;;4.60;2.42;;;26.10;68.30;;;;;;5071828;28;20099;-52
2023/06/15 10:01:42;;;;;;;3.10;2.40;;;25.60;67.10;;;;;;5072030;28;20063;-47
2023/06/15 10:04:09;;;;;;;2.95;2.05;;;25.60;67.80;;;;;;5085017;28;20399;-52
2023/06/15 10:06:37;;;;;;;2.33;2.05;;;25.70;67.80;;;;;;5091515;28;20108;-56
2023/06/15 10:09:06;;;;;;;2.95;2.53;;;25.60;68.10;;;;;;5092544;28;20039;-52
2023/06/15 10:11:34;;;;;;;3.97;2.50;;;25.50;68.50;;;;;;5100320;28;20030;-49
2023/06/15 10:14:15;;;;;;;28.48;20.48;;;25.60;69.80;;;;;;5095287;28;20012;-49
2023/06/15 10:16:43;;;;;;;3.33;2.70;;;25.60;69.20;;;;;;5087967;28;20025;-51
2023/06/15 10:19:11;;;;;;;2.22;2.08;;;25.40;68.20;;;;;;5075430;28;20035;-55
2023/06/15 10:21:42;;;;;;;4.07;3.28;;;25.10;68.30;;;;;;5067987;28;20482;-50
2023/06/15 10:24:16;;;;;;;2.85;2.30;;;25.00;69.30;;;;;;5088016;28;20395;-54
2023/06/15 10:26:43;;;;;;;3.22;2.65;;;25.10;68.20;;;;;;5094630;28;20020;-54
2023/06/15 10:29:40;;;;;;;3.35;3.05;;;25.20;68.90;;;;;;5094897;28;20496;-46
2023/06/15 10:32:21;;;;;;;3.17;2.75;;;25.20;68.90;;;;;;5020839;28;20057;-55
2023/06/15 10:35:03;;;;;;;3.13;2.78;;;25.20;68.50;;;;;;5092239;28;20077;-51
2023/06/15 10:37:54;;;;;;;7.28;3.25;;;25.20;68.40;;;;;;5095010;28;20028;-51
2023/06/15 10:40:45;;;;;;;4.57;2.85;;;25.10;69.40;;;;;;5100887;28;20028;-51
2023/06/15 10:43:20;;;;;;;5.38;3.10;;;25.10;68.90;;;;;;5092300;28;20039;-51
2023/06/15 10:45:46;;;;;;;3.67;3.10;;;24.90;69.30;;;;;;5090010;28;20035;-50
2023/06/15 10:48:27;;;;;;;4.85;3.08;;;25.00;70.40;;;;;;5083229;28;20027;-49
2023/06/15 10:51:05;;;;;;;4.65;3.17;;;24.90;69.40;;;;;;5082641;28;20028;-55
2023/06/15 10:53:41;;;;;;;6.95;3.13;;;24.70;69.40;;;;;;5086427;28;20016;-52
2023/06/15 10:56:16;;;;;;;4.03;2.85;;;24.60;69.60;;;;;;5094111;28;20024;-49
2023/06/15 10:58:59;;;;;;;6.10;2.88;;;24.50;69.20;;;;;;5083723;28;20028;-48
2023/06/15 11:01:32;;;;;;;4.22;2.42;;;24.80;68.80;;;;;;5073601;28;20104;-55
2023/06/15 11:03:58;;;;;;;2.55;2.33;;;25.10;67.60;;;;;;5081569;28;20103;-49
2023/06/15 11:06:35;;;;;;;7.28;2.67;;;25.30;65.60;;;;;;5086054;28;20032;-49
2023/06/15 11:09:07;;;;;;;3.13;2.83;;;25.40;66.30;;;;;;5094291;28;20031;-57
2023/06/15 11:11:34;;;;;;;3.25;2.78;;;25.20;65.10;;;;;;5094476;28;20016;-53
2023/06/15 11:14:00;;;;;;;11.80;7.13;;;25.20;66.50;;;;;;5092747;28;20032;-50
2023/06/15 11:16:29;;;;;;;10.20;7.95;;;25.30;66.40;;;;;;5090709;28;20065;-55
2023/06/15 11:18:55;;;;;;;4.60;3.47;;;25.40;67.20;;;;;;5094220;28;20585;-49
2023/06/15 11:21:28;;;;;;;7.45;2.60;;;25.60;66.00;;;;;;5093418;28;20039;-54
2023/06/15 11:23:57;;;;;;;3.05;2.75;;;25.60;65.80;;;;;;5122849;22;20384;-44
2023/06/15 11:26:27;;;;;;;4.55;2.78;;;25.60;67.00;;;;;;5109603;28;20023;-45
2023/06/15 11:28:57;;;;;;;6.25;2.67;;;25.60;66.80;;;;;;5113377;28;20015;-47
2023/06/15 11:31:23;;;;;;;5.10;2.90;;;25.30;66.80;;;;;;5114811;28;20020;-46
2023/06/15 11:33:49;;;;;;;9.77;3.10;;;25.10;66.00;;;;;;5113467;28;20024;-51
2023/06/15 11:36:15;;;;;;;7.35;2.45;;;25.00;66.90;;;;;;5113814;28;20016;-49
2023/06/15 11:38:40;;;;;;;5.75;2.72;;;24.90;66.00;;;;;;5109760;28;20039;-54
2023/06/15 11:41:08;;;;;;;3.30;2.33;;;24.80;66.70;;;;;;5110984;28;20028;-52
2023/06/15 11:43:48;;;;;;;7.22;2.67;;;24.80;67.00;;;;;;5107852;28;20115;-48
2023/06/15 11:46:15;;;;;;;3.38;2.40;;;24.80;67.20;;;;;;5108699;28;20075;-51
2023/06/15 11:48:43;;;;;;;5.25;2.88;;;25.00;68.30;;;;;;5102272;28;20032;-48
2023/06/15 11:51:10;;;;;;;3.45;2.55;;;25.20;67.80;;;;;;5113236;28;20028;-51
2023/06/15 11:53:37;;;;;;;7.78;2.53;;;25.40;65.80;;;;;;5114372;28;20051;-50
2023/06/15 11:56:03;;;;;;;2.78;2.53;;;25.40;65.70;;;;;;5114263;28;20020;-45
2023/06/15 11:58:29;;;;;;;5.72;2.60;;;25.50;64.90;;;;;;5113495;28;20045;-52
2023/06/15 12:00:55;;;;;;;3.15;2.60;;;25.40;65.10;;;;;;5112936;28;20448;-48
2023/06/15 12:03:21;;;;;;;3.40;2.72;;;25.30;65.50;;;;;;5112821;28;20034;-42
2023/06/15 12:05:57;;;;;;;2.45;2.25;;;25.40;66.30;;;;;;5113042;28;20043;-51
2023/06/15 12:08:23;;;;;;;5.78;2.53;;;25.40;65.10;;;;;;5112815;28;20034;-48
2023/06/15 12:10:50;;;;;;;4.40;2.10;;;25.30;65.10;;;;;;5113491;28;20061;-51
2023/06/15 12:13:15;;;;;;;2.95;2.65;;;25.40;65.60;;;;;;5095030;28;20026;-50
2023/06/15 12:15:46;;;;;;;3.83;2.42;;;25.30;65.50;;;;;;5112946;28;20020;-46
2023/06/15 12:18:11;;;;;;;8.05;3.92;;;25.10;66.50;;;;;;5113305;28;20035;-52
2023/06/15 12:20:38;;;;;;;60.95;38.10;;;25.20;66.00;;;;;;5113006;28;20047;-44
2023/06/15 12:23:06;;;;;;;4.82;3.40;;;25.30;65.70;;;;;;5112113;28;20039;-47
2023/06/15 12:25:45;;;;;;;2.85;2.53;;;25.50;66.10;;;;;;5112911;28;20068;-51
2023/06/15 12:28:15;;;;;;;3.75;2.33;;;25.70;64.50;;;;;;5112499;28;20084;-45
2023/06/15 12:30:42;;;;;;;3.33;2.50;;;25.80;66.50;;;;;;5113066;28;20482;-46
2023/06/15 12:33:27;;;;;;;5.18;2.80;;;25.90;63.90;;;;;;5111281;28;20026;-47
2023/06/15 12:35:54;;;;;;;4.22;2.22;;;26.00;64.30;;;;;;5112791;28;20045;-46
2023/06/15 12:38:21;;;;;;;8.23;2.70;;;26.00;64.60;;;;;;5112626;28;20043;-46
2023/06/15 12:40:47;;;;;;;3.08;2.45;;;26.00;64.20;;;;;;5112854;28;20087;-47
2023/06/15 12:43:15;;;;;;;7.53;3.08;;;25.90;64.60;;;;;;5112679;28;20034;-44
2023/06/15 12:45:40;;;;;;;3.20;2.80;;;26.00;65.40;;;;;;5112509;28;20043;-45
2023/06/15 12:48:06;;;;;;;2.55;2.35;;;26.00;65.70;;;;;;5094543;28;20050;-44
2023/06/15 12:50:32;;;;;;;3.13;2.67;;;26.00;64.40;;;;;;5113075;28;20024;-46